createdAt,value
2024-03-24T00:00:13.134Z,3.8755
2024-03-24T00:01:16.161Z,3.8649
2024-03-24T00:02:19.195Z,3.9099
2024-03-24T00:03:22.215Z,3.8939
2024-03-24T00:04:25.288Z,4.0057
2024-03-24T00:05:28.323Z,3.9364
2024-03-24T00:06:31.367Z,3.9296
2024-03-24T00:07:34.396Z,3.9040
2024-03-24T00:08:37.442Z,3.9836
2024-03-24T00:09:40.495Z,3.9887
2024-03-24T00:10:43.533Z,4.0854
2024-03-24T00:11:46.574Z,4.0444
2024-03-24T00:12:49.599Z,4.0614
2024-03-24T00:13:52.652Z,4.0848
2024-03-24T00:14:55.686Z,4.0803
2024-03-24T00:15:59.066Z,4.0321
2024-03-24T00:17:02.121Z,4.1265
2024-03-24T00:18:05.126Z,4.1019
2024-03-24T00:19:08.219Z,4.0528
2024-03-24T00:20:11.252Z,4.1578
2024-03-24T00:21:14.261Z,4.1431
2024-03-24T00:22:17.550Z,4.1765
2024-03-24T00:23:20.590Z,4.1594
2024-03-24T00:24:23.728Z,4.2283
2024-03-24T00:25:26.734Z,4.2625
2024-03-24T00:26:29.769Z,4.2806
2024-03-24T00:27:32.745Z,4.2944
2024-03-24T00:28:35.921Z,4.2155
2024-03-24T00:29:38.939Z,4.1907
2024-03-24T00:30:41.900Z,4.1550
2024-03-24T00:31:44.983Z,4.1765
2024-03-24T00:32:48.018Z,4.1879
2024-03-24T00:33:51.040Z,4.1751
2024-03-24T00:34:54.410Z,4.2778
2024-03-24T00:35:57.608Z,4.2412
2024-03-24T00:37:00.797Z,4.1959
2024-03-24T00:38:03.825Z,4.1428
2024-03-24T00:39:06.883Z,4.0907
2024-03-24T00:40:09.918Z,4.0519
2024-03-24T00:41:12.909Z,4.0787
2024-03-24T00:42:16.004Z,4.1373
2024-03-24T00:43:19.058Z,4.0483
2024-03-24T00:44:22.099Z,4.1324
2024-03-24T00:45:25.146Z,4.0666
2024-03-24T00:46:28.180Z,4.1418
2024-03-24T00:47:31.244Z,4.0786
2024-03-24T00:48:34.247Z,4.0154
2024-03-24T00:49:37.244Z,4.0861
2024-03-24T00:50:40.347Z,4.0197
2024-03-24T00:51:43.362Z,4.0069
2024-03-24T00:52:46.669Z,4.0302
2024-03-24T00:53:49.766Z,4.0646
2024-03-24T00:54:52.787Z,4.0556
2024-03-24T00:55:55.844Z,4.0623
2024-03-24T00:56:58.901Z,4.0548
2024-03-24T00:58:02.275Z,3.9991
2024-03-24T00:59:05.286Z,3.9494
2024-03-24T01:00:08.324Z,3.8893
2024-03-24T01:01:11.391Z,3.9442
2024-03-24T01:02:14.355Z,3.9231
2024-03-24T01:03:17.451Z,3.9606
2024-03-24T01:04:20.507Z,3.9731
2024-03-24T01:05:23.556Z,3.8773
2024-03-24T01:06:26.601Z,3.9111
2024-03-24T01:07:29.676Z,3.8939
2024-03-24T01:08:32.724Z,3.8497
2024-03-24T01:09:35.712Z,3.8982
2024-03-24T01:10:38.752Z,3.8612
2024-03-24T01:11:41.900Z,3.8884
2024-03-24T01:12:44.883Z,3.8586
2024-03-24T01:13:47.900Z,3.8302
2024-03-24T01:14:50.904Z,3.8543
2024-03-24T01:15:53.930Z,3.7893
2024-03-24T01:16:56.893Z,3.7578
2024-03-24T01:18:00.015Z,3.7348
2024-03-24T01:19:03.094Z,3.7971
2024-03-24T01:20:06.073Z,3.7525
2024-03-24T01:21:09.150Z,3.7138
2024-03-24T01:22:12.202Z,3.7026
2024-03-24T01:23:15.198Z,3.7028
2024-03-24T01:24:18.250Z,3.7248
2024-03-24T01:25:21.292Z,3.7023
2024-03-24T01:26:24.392Z,3.7245
2024-03-24T01:27:27.422Z,3.6880
2024-03-24T01:28:30.542Z,3.7233
2024-03-24T01:29:33.532Z,3.7341
2024-03-24T01:30:36.581Z,3.7240
2024-03-24T01:31:39.652Z,3.7049
2024-03-24T01:32:42.652Z,3.7230
2024-03-24T01:33:45.673Z,3.7052
2024-03-24T01:34:48.967Z,3.6911
2024-03-24T01:35:52.045Z,3.6586
2024-03-24T01:36:55.061Z,3.6141
2024-03-24T01:37:58.062Z,3.6203
2024-03-24T01:39:01.132Z,3.6320
2024-03-24T01:40:04.167Z,3.6357
2024-03-24T01:41:07.189Z,3.6528
2024-03-24T01:42:10.196Z,3.6150
2024-03-24T01:43:13.298Z,3.5860
2024-03-24T01:44:16.342Z,3.5455
2024-03-24T01:45:19.353Z,3.4892
2024-03-24T01:46:22.462Z,3.4470
2024-03-24T01:47:25.486Z,3.4464
2024-03-24T01:48:28.493Z,3.4076
2024-03-24T01:49:31.675Z,3.4108
2024-03-24T01:50:34.703Z,3.3987
2024-03-24T01:51:37.684Z,3.3867
2024-03-24T01:52:40.715Z,3.3398
2024-03-24T01:53:43.684Z,3.3275
2024-03-24T01:54:46.746Z,3.3337
2024-03-24T01:55:49.763Z,3.2754
2024-03-24T01:56:52.821Z,3.2598
2024-03-24T01:57:55.867Z,3.2514
2024-03-24T01:58:58.915Z,3.2447
2024-03-24T02:00:01.915Z,3.1928
2024-03-24T02:01:04.936Z,3.1847
2024-03-24T02:02:07.946Z,3.1445
2024-03-24T02:03:11.023Z,3.0943
2024-03-24T02:04:14.132Z,3.0302
2024-03-24T02:05:17.088Z,3.0744
2024-03-24T02:06:20.131Z,3.0882
2024-03-24T02:07:23.166Z,3.0775
2024-03-24T02:08:26.190Z,2.9989
2024-03-24T02:09:29.234Z,2.9705
2024-03-24T02:10:32.275Z,2.9968
2024-03-24T02:11:35.318Z,2.9771
2024-03-24T02:12:38.312Z,2.9733
2024-03-24T02:13:41.426Z,2.9428
2024-03-24T02:14:44.441Z,2.8866
2024-03-24T02:15:47.467Z,2.9047
2024-03-24T02:16:50.535Z,2.9026
2024-03-24T02:17:57.815Z,2.8774
2024-03-24T02:18:55.646Z,2.8565
2024-03-24T02:19:58.644Z,2.8526
2024-03-24T02:21:01.726Z,2.8742
2024-03-24T02:22:04.755Z,2.7995
2024-03-24T02:23:07.914Z,2.7665
2024-03-24T02:24:10.907Z,2.7314
2024-03-24T02:25:13.920Z,2.7114
2024-03-24T02:26:17.267Z,2.6903
2024-03-24T02:27:20.344Z,2.6412
2024-03-24T02:28:23.384Z,2.5936
2024-03-24T02:29:26.674Z,2.5571
2024-03-24T02:30:26.588Z,2.5432
2024-03-24T02:31:29.577Z,2.5308
2024-03-24T02:32:32.669Z,2.4402
2024-03-24T02:33:35.703Z,2.4421
2024-03-24T02:34:38.723Z,2.5188
2024-03-24T02:35:41.726Z,2.5464
2024-03-24T02:36:44.753Z,2.5931
2024-03-24T02:37:47.799Z,2.6864
2024-03-24T02:38:50.844Z,2.7486
2024-03-24T02:39:53.952Z,2.7019
2024-03-24T02:40:56.985Z,2.7634
2024-03-24T02:42:00.072Z,2.7821
2024-03-24T02:43:03.109Z,2.8168
2024-03-24T02:44:06.149Z,2.8059
2024-03-24T02:45:09.244Z,2.8283
2024-03-24T02:46:12.273Z,2.8692
2024-03-24T02:47:15.488Z,2.8459
2024-03-24T02:48:18.532Z,2.8806
2024-03-24T02:49:21.554Z,2.9122
2024-03-24T02:50:24.586Z,2.9254
2024-03-24T02:51:27.906Z,2.9192
2024-03-24T02:52:30.993Z,2.9112
2024-03-24T02:53:34.068Z,2.8834
2024-03-24T02:54:37.136Z,2.8993
2024-03-24T02:55:40.136Z,2.8996
2024-03-24T02:56:43.154Z,2.8777
2024-03-24T02:57:46.353Z,2.9232
2024-03-24T02:58:49.351Z,2.9081
2024-03-24T02:59:52.617Z,2.9251
2024-03-24T03:00:55.624Z,2.9370
2024-03-24T03:01:58.677Z,2.9441
2024-03-24T03:03:01.712Z,2.9182
2024-03-24T03:04:04.708Z,2.8869
2024-03-24T03:05:07.811Z,2.8759
2024-03-24T03:06:11.170Z,2.8631
2024-03-24T03:07:14.174Z,2.8978
2024-03-24T03:08:17.195Z,2.9673
2024-03-24T03:09:20.285Z,2.9383
2024-03-24T03:10:23.324Z,2.9397
2024-03-24T03:11:26.341Z,2.9812
2024-03-24T03:12:29.421Z,2.9569
2024-03-24T03:13:32.409Z,2.9609
2024-03-24T03:14:35.478Z,2.9653
2024-03-24T03:15:38.687Z,2.9391
2024-03-24T03:16:41.692Z,2.9277
2024-03-24T03:17:44.673Z,2.9103
2024-03-24T03:18:47.963Z,2.9047
2024-03-24T03:19:50.990Z,2.9066
2024-03-24T03:20:54.043Z,2.9208
2024-03-24T03:21:57.042Z,2.8590
2024-03-24T03:23:00.144Z,2.8133
2024-03-24T03:24:03.159Z,2.8079
2024-03-24T03:25:06.205Z,2.7958
2024-03-24T03:26:09.240Z,2.7756
2024-03-24T03:27:12.229Z,2.7826
2024-03-24T03:28:15.333Z,2.7268
2024-03-24T03:29:18.364Z,2.6937
2024-03-24T03:30:21.443Z,2.7286
2024-03-24T03:31:24.443Z,2.7560
2024-03-24T03:32:27.498Z,2.7714
2024-03-24T03:33:30.555Z,2.7473
2024-03-24T03:34:33.565Z,2.6185
2024-03-24T03:35:36.604Z,2.6096
2024-03-24T03:36:39.640Z,2.6093
2024-03-24T03:37:42.735Z,2.5907
2024-03-24T03:38:45.818Z,2.6137
2024-03-24T03:39:48.882Z,2.5770
2024-03-24T03:40:51.901Z,2.5514
2024-03-24T03:41:55.166Z,2.5157
2024-03-24T03:42:58.189Z,2.2518
2024-03-24T03:44:01.255Z,2.0743
2024-03-24T03:45:04.281Z,2.0064
2024-03-24T03:46:07.320Z,1.9619
2024-03-24T03:47:10.306Z,1.9491
2024-03-24T03:48:13.398Z,1.9224
2024-03-24T03:49:16.523Z,1.8971
2024-03-24T03:50:19.574Z,1.9172
2024-03-24T03:51:22.618Z,1.9420
2024-03-24T03:52:25.668Z,1.9997
2024-03-24T03:53:28.686Z,2.1375
2024-03-24T03:54:31.731Z,2.1672
2024-03-24T03:55:34.750Z,2.1663
2024-03-24T03:56:37.861Z,2.2030
2024-03-24T03:57:40.867Z,2.2859
2024-03-24T03:58:43.891Z,2.3185
2024-03-24T03:59:46.987Z,2.3280
2024-03-24T04:00:49.949Z,2.3559
2024-03-24T04:01:52.931Z,2.4243
2024-03-24T04:02:55.972Z,2.4700
2024-03-24T04:03:58.942Z,2.5139
2024-03-24T04:05:02.044Z,2.5304
2024-03-24T04:06:05.067Z,2.5087
2024-03-24T04:07:08.119Z,2.5310
2024-03-24T04:08:11.186Z,2.5314
2024-03-24T04:09:14.213Z,2.5488
2024-03-24T04:10:17.395Z,2.5381
2024-03-24T04:11:20.420Z,2.5232
2024-03-24T04:12:23.472Z,2.5178
2024-03-24T04:13:26.775Z,2.5517
2024-03-24T04:14:29.795Z,2.6091
2024-03-24T04:15:32.781Z,2.6060
2024-03-24T04:16:35.970Z,2.5522
2024-03-24T04:17:38.953Z,2.5400
2024-03-24T04:18:42.023Z,2.5384
2024-03-24T04:19:45.028Z,2.5534
2024-03-24T04:20:48.294Z,2.5842
2024-03-24T04:21:51.343Z,2.5507
2024-03-24T04:22:54.373Z,2.5382
2024-03-24T04:23:57.423Z,2.5479
2024-03-24T04:25:00.528Z,2.5519
2024-03-24T04:26:03.525Z,2.6094
2024-03-24T04:27:06.544Z,2.6170
2024-03-24T04:28:09.557Z,2.5968
2024-03-24T04:29:12.562Z,2.5970
2024-03-24T04:30:15.682Z,2.6452
2024-03-24T04:31:18.689Z,2.6353
2024-03-24T04:32:21.745Z,2.5986
2024-03-24T04:33:24.755Z,2.5600
2024-03-24T04:34:27.766Z,2.5280
2024-03-24T04:35:30.857Z,2.5129
2024-03-24T04:36:34.043Z,2.4813
2024-03-24T04:37:37.046Z,2.4690
2024-03-24T04:38:40.059Z,2.4638
2024-03-24T04:39:43.326Z,2.4909
2024-03-24T04:40:46.396Z,2.4504
2024-03-24T04:41:49.475Z,2.4382
2024-03-24T04:42:52.643Z,2.4387
2024-03-24T04:43:55.782Z,2.4817
2024-03-24T04:44:58.843Z,2.4577
2024-03-24T04:46:01.894Z,2.4305
2024-03-24T04:47:04.919Z,2.4351
2024-03-24T04:48:07.955Z,2.4427
2024-03-24T04:49:11.016Z,2.4261
2024-03-24T04:50:14.042Z,2.4332
2024-03-24T04:51:17.143Z,2.4795
2024-03-24T04:52:20.184Z,2.5155
2024-03-24T04:53:23.252Z,2.5007
2024-03-24T04:54:26.515Z,2.4807
2024-03-24T04:55:29.586Z,2.4293
2024-03-24T04:56:32.612Z,2.4305
2024-03-24T04:57:35.632Z,2.4351
2024-03-24T04:58:38.691Z,2.4707
2024-03-24T04:59:41.784Z,2.5063
2024-03-24T05:00:44.868Z,2.5267
2024-03-24T05:01:47.884Z,2.4979
2024-03-24T05:02:50.943Z,2.4924
2024-03-24T05:03:53.961Z,2.5099
2024-03-24T05:04:56.956Z,2.5626
2024-03-24T05:06:00.049Z,2.5636
2024-03-24T05:07:03.088Z,2.5031
2024-03-24T05:08:06.114Z,2.4553
2024-03-24T05:09:09.123Z,2.5575
2024-03-24T05:10:12.219Z,2.5289
2024-03-24T05:11:15.203Z,2.5238
2024-03-24T05:12:18.351Z,2.5001
2024-03-24T05:13:21.343Z,2.4164
2024-03-24T05:14:24.387Z,2.2800
2024-03-24T05:15:27.455Z,2.2083
2024-03-24T05:16:30.489Z,2.1341
2024-03-24T05:17:33.631Z,1.9798
2024-03-24T05:18:36.800Z,1.8207
2024-03-24T05:19:39.834Z,1.6653
2024-03-24T05:20:42.869Z,1.5797
2024-03-24T05:21:45.935Z,1.5915
2024-03-24T05:22:49.036Z,1.6447
2024-03-24T05:23:52.104Z,1.5974
2024-03-24T05:24:55.362Z,1.5030
2024-03-24T05:25:58.365Z,1.4692
2024-03-24T05:27:01.465Z,1.4575
2024-03-24T05:28:04.543Z,1.4573
2024-03-24T05:29:07.572Z,1.4238
2024-03-24T05:30:10.643Z,1.2902
2024-03-24T05:31:13.919Z,1.2378
2024-03-24T05:32:16.952Z,1.2587
2024-03-24T05:33:19.992Z,1.1225
2024-03-24T05:34:23.032Z,1.0721
2024-03-24T05:35:26.068Z,1.0044
2024-03-24T05:36:28.561Z,1.0040
2024-03-24T05:37:30.997Z,0.9363
2024-03-24T05:38:33.593Z,0.9575
2024-03-24T05:39:36.049Z,0.9090
2024-03-24T05:40:38.533Z,0.8657
2024-03-24T05:41:41.109Z,0.8877
2024-03-24T05:42:43.624Z,0.9120
2024-03-24T05:43:46.237Z,0.9540
2024-03-24T05:44:48.727Z,0.9340
2024-03-24T05:45:51.191Z,0.9703
2024-03-24T05:46:53.771Z,0.9627
2024-03-24T05:47:56.225Z,0.9731
2024-03-24T05:48:58.701Z,0.9476
2024-03-24T05:50:01.198Z,0.8706
2024-03-24T05:51:03.699Z,0.9059
2024-03-24T05:52:06.161Z,0.9759
2024-03-24T05:53:08.808Z,1.0329
2024-03-24T05:54:11.315Z,1.0681
2024-03-24T05:55:13.756Z,1.0635
2024-03-24T05:56:16.307Z,1.0265
2024-03-24T05:57:18.792Z,1.1792
2024-03-24T05:58:21.255Z,1.1902
2024-03-24T05:59:23.896Z,1.2502
2024-03-24T06:00:26.505Z,1.3421
2024-03-24T06:01:28.922Z,1.3634
2024-03-24T06:02:31.360Z,1.4161
2024-03-24T06:03:34.087Z,1.5456
2024-03-24T06:04:36.482Z,1.5640
2024-03-24T06:05:38.900Z,1.6538
2024-03-24T06:06:41.353Z,1.7088
2024-03-24T06:07:43.811Z,1.7339
2024-03-24T06:08:46.375Z,1.8052
2024-03-24T06:09:48.791Z,1.8588
2024-03-24T06:10:51.514Z,1.8662
2024-03-24T06:11:54.033Z,1.8870
2024-03-24T06:12:56.440Z,1.8715
2024-03-24T06:13:58.960Z,1.8625
2024-03-24T06:15:01.382Z,1.9060
2024-03-24T06:16:03.832Z,1.9499
2024-03-24T06:17:06.257Z,1.9451
2024-03-24T06:18:08.945Z,1.9680
2024-03-24T06:19:14.213Z,1.9570
2024-03-24T06:20:13.735Z,1.9782
2024-03-24T06:21:16.157Z,1.9969
2024-03-24T06:22:18.574Z,1.9810
2024-03-24T06:23:21.022Z,1.9917
2024-03-24T06:24:23.461Z,2.0936
2024-03-24T06:25:25.911Z,2.1134
2024-03-24T06:26:28.474Z,2.1353
2024-03-24T06:27:30.925Z,2.2443
2024-03-24T06:28:33.603Z,2.2663
2024-03-24T06:29:36.047Z,2.3164
2024-03-24T06:30:38.667Z,2.3607
2024-03-24T06:31:43.842Z,2.4145
2024-03-24T06:32:44.808Z,2.4717
2024-03-24T06:33:47.277Z,2.5244
2024-03-24T06:34:49.713Z,2.6026
2024-03-24T06:35:52.311Z,2.5774
2024-03-24T06:36:54.718Z,2.5627
2024-03-24T06:37:57.179Z,2.5452
2024-03-24T06:38:59.604Z,2.5276
2024-03-24T06:40:02.031Z,2.5486
2024-03-24T06:41:04.479Z,2.6308
2024-03-24T06:42:07.027Z,2.6393
2024-03-24T06:43:09.521Z,2.6486
2024-03-24T06:44:11.914Z,2.6461
2024-03-24T06:45:14.382Z,2.7884
2024-03-24T06:46:16.958Z,2.7976
2024-03-24T06:47:19.398Z,2.8642
2024-03-24T06:48:21.865Z,2.8352
2024-03-24T06:49:24.303Z,2.8545
2024-03-24T06:50:26.874Z,2.8306
2024-03-24T06:51:29.312Z,2.8244
2024-03-24T06:52:32.040Z,2.8845
2024-03-24T06:53:34.800Z,2.8103
2024-03-24T06:54:37.370Z,2.7783
2024-03-24T06:55:39.794Z,2.8309
2024-03-24T06:56:42.554Z,2.8946
2024-03-24T06:57:45.284Z,2.8400
2024-03-24T06:58:47.745Z,2.8533
2024-03-24T06:59:50.182Z,2.9101
2024-03-24T07:00:52.618Z,2.9369
2024-03-24T07:01:55.200Z,2.9067
2024-03-24T07:02:57.638Z,2.9711
2024-03-24T07:04:00.299Z,3.0527
2024-03-24T07:05:02.760Z,3.0808
2024-03-24T07:06:05.429Z,3.1373
2024-03-24T07:07:07.842Z,3.2260
2024-03-24T07:08:10.279Z,3.1554
2024-03-24T07:09:12.742Z,3.0514
2024-03-24T07:10:15.183Z,3.0443
2024-03-24T07:11:17.762Z,3.0594
2024-03-24T07:12:20.189Z,3.1227
2024-03-24T07:13:22.830Z,3.1413
2024-03-24T07:14:25.272Z,3.1649
2024-03-24T07:15:27.741Z,3.1533
2024-03-24T07:16:30.199Z,3.1235
2024-03-24T07:17:32.621Z,3.1815
2024-03-24T07:18:35.041Z,3.3275
2024-03-24T07:19:37.601Z,3.4282
2024-03-24T07:20:40.040Z,3.5495
2024-03-24T07:21:42.448Z,3.8053
2024-03-24T07:22:44.940Z,3.9160
2024-03-24T07:23:47.385Z,3.9620
2024-03-24T07:24:49.930Z,3.9823
2024-03-24T07:25:52.632Z,3.9538
2024-03-24T07:26:55.133Z,3.7906
2024-03-24T07:27:58.069Z,3.7233
2024-03-24T07:29:01.124Z,3.6567
2024-03-24T07:30:04.161Z,3.6881
2024-03-24T07:31:07.180Z,3.6804
2024-03-24T07:32:10.231Z,3.7230
2024-03-24T07:33:13.410Z,3.7075
2024-03-24T07:34:16.434Z,3.5783
2024-03-24T07:35:19.486Z,3.6154
2024-03-24T07:36:22.509Z,3.5478
2024-03-24T07:37:25.520Z,3.6006
2024-03-24T07:38:28.543Z,3.7252
2024-03-24T07:39:31.576Z,3.7721
2024-03-24T07:40:34.871Z,3.9243
2024-03-24T07:41:37.914Z,3.9989
2024-03-24T07:42:43.515Z,4.1983
2024-03-24T07:43:44.061Z,4.2847
2024-03-24T07:44:47.111Z,4.2379
2024-03-24T07:45:50.127Z,4.2837
2024-03-24T07:46:53.226Z,4.2526
2024-03-24T07:47:56.258Z,4.3060
2024-03-24T07:48:59.298Z,4.4543
2024-03-24T07:50:02.335Z,4.3772
2024-03-24T07:51:05.342Z,4.4027
2024-03-24T07:52:08.361Z,4.4302
2024-03-24T07:53:11.390Z,4.5761
2024-03-24T07:54:14.526Z,4.5690
2024-03-24T07:55:17.584Z,4.5000
2024-03-24T07:56:20.557Z,4.4686
2024-03-24T07:57:23.831Z,4.4377
2024-03-24T07:58:27.053Z,4.4408
2024-03-24T07:59:30.198Z,4.6116
2024-03-24T08:00:33.253Z,4.7975
2024-03-24T08:01:36.305Z,4.6027
2024-03-24T08:02:39.387Z,4.4621
2024-03-24T08:03:42.381Z,4.5374
2024-03-24T08:04:45.471Z,4.6947
2024-03-24T08:05:48.548Z,4.5337
2024-03-24T08:06:51.630Z,4.5255
2024-03-24T08:07:56.440Z,4.5985
2024-03-24T08:08:56.422Z,4.6661
2024-03-24T08:09:59.651Z,4.6347
2024-03-24T08:11:02.703Z,4.6463
2024-03-24T08:12:05.831Z,4.8537
2024-03-24T08:13:08.841Z,5.2468
2024-03-24T08:14:11.936Z,5.0651
2024-03-24T08:15:14.953Z,4.9914
2024-03-24T08:16:17.965Z,4.8503
2024-03-24T08:17:21.267Z,4.7114
2024-03-24T08:18:24.301Z,4.5620
2024-03-24T08:19:27.341Z,4.8613
2024-03-24T08:20:30.431Z,4.7892
2024-03-24T08:21:33.522Z,4.7632
2024-03-24T08:22:36.804Z,4.6674
2024-03-24T08:23:39.909Z,4.6337
2024-03-24T08:24:42.928Z,4.7160
2024-03-24T08:25:45.896Z,4.7496
2024-03-24T08:26:48.968Z,4.6843
2024-03-24T08:27:51.981Z,4.8361
2024-03-24T08:28:55.007Z,4.8432
2024-03-24T08:29:58.052Z,4.6788
2024-03-24T08:31:01.061Z,4.6867
2024-03-24T08:32:04.074Z,4.6459
2024-03-24T08:33:07.181Z,4.6512
2024-03-24T08:34:10.220Z,4.6227
2024-03-24T08:35:13.221Z,4.7684
2024-03-24T08:36:16.629Z,4.7507
2024-03-24T08:37:19.696Z,4.7776
2024-03-24T08:38:22.869Z,4.6687
2024-03-24T08:39:25.889Z,4.7172
2024-03-24T08:40:31.120Z,4.8433
2024-03-24T08:41:31.911Z,4.7490
2024-03-24T08:42:34.904Z,4.7146
2024-03-24T08:43:37.899Z,4.6316
2024-03-24T08:44:40.958Z,4.6063
2024-03-24T08:45:43.994Z,4.5684
2024-03-24T08:46:47.043Z,4.6924
2024-03-24T08:47:50.058Z,5.2996
2024-03-24T08:48:53.087Z,5.4458
2024-03-24T08:49:56.147Z,6.1229
2024-03-24T08:50:59.126Z,5.9551
2024-03-24T08:52:02.253Z,5.3118
2024-03-24T08:53:05.258Z,5.1249
2024-03-24T08:54:08.567Z,5.2939
2024-03-24T08:55:11.704Z,4.9050
2024-03-24T08:56:14.700Z,4.6788
2024-03-24T08:57:17.736Z,4.5723
2024-03-24T08:58:20.800Z,4.5880
2024-03-24T08:59:23.996Z,4.5457
2024-03-24T09:00:27.190Z,4.5770
2024-03-24T09:01:30.283Z,4.4778
2024-03-24T09:02:33.503Z,4.2434
2024-03-24T09:03:36.600Z,4.2851
2024-03-24T09:04:39.690Z,4.3910
2024-03-24T09:05:42.756Z,4.7337
2024-03-24T09:06:45.769Z,5.0064
2024-03-24T09:07:48.817Z,5.7241
2024-03-24T09:08:51.865Z,5.4679
2024-03-24T09:09:54.893Z,5.0409
2024-03-24T09:10:57.888Z,5.1715
2024-03-24T09:12:01.046Z,5.1612
2024-03-24T09:13:04.060Z,5.5637
2024-03-24T09:14:07.076Z,5.7404
2024-03-24T09:15:10.267Z,6.0699
2024-03-24T09:16:13.239Z,6.0423
2024-03-24T09:17:16.392Z,6.0214
2024-03-24T09:18:19.495Z,6.1550
2024-03-24T09:19:22.548Z,6.5703
2024-03-24T09:20:25.620Z,6.2642
2024-03-24T09:21:28.643Z,6.4141
2024-03-24T09:22:31.657Z,6.7663
2024-03-24T09:23:34.706Z,7.3347
2024-03-24T09:24:37.752Z,6.8134
2024-03-24T09:25:40.772Z,7.1149
2024-03-24T09:26:43.822Z,7.7353
2024-03-24T09:27:46.869Z,8.4668
2024-03-24T09:28:49.889Z,8.2621
2024-03-24T09:29:52.989Z,8.0042
2024-03-24T09:30:56.033Z,8.3254
2024-03-24T09:31:59.075Z,9.1915
2024-03-24T09:33:02.092Z,8.7264
2024-03-24T09:34:05.354Z,8.4622
2024-03-24T09:35:13.272Z,8.8893
2024-03-24T09:36:10.583Z,8.4698
2024-03-24T09:37:13.575Z,7.1021
2024-03-24T09:38:16.856Z,6.5885
2024-03-24T09:39:19.962Z,6.6161
2024-03-24T09:40:23.054Z,7.6218
2024-03-24T09:41:26.096Z,6.6801
2024-03-24T09:42:29.100Z,6.5197
2024-03-24T09:43:32.160Z,6.4850
2024-03-24T09:44:35.234Z,7.1355
2024-03-24T09:45:38.260Z,7.5349
2024-03-24T09:46:41.242Z,6.8790
2024-03-24T09:47:44.301Z,6.3642
2024-03-24T09:48:47.301Z,6.3170
2024-03-24T09:49:50.319Z,6.6437
2024-03-24T09:50:53.393Z,8.0418
2024-03-24T09:51:56.452Z,8.9165
2024-03-24T09:52:59.489Z,9.5799
2024-03-24T09:54:02.553Z,8.8641
2024-03-24T09:55:05.580Z,9.6450
2024-03-24T09:56:08.608Z,9.5560
2024-03-24T09:57:11.663Z,7.9446
2024-03-24T09:58:17.214Z,7.9326
2024-03-24T09:59:17.462Z,7.8559
2024-03-24T10:00:20.724Z,7.4580
2024-03-24T10:01:23.826Z,9.8251
2024-03-24T10:02:26.845Z,8.9981
2024-03-24T10:03:29.922Z,8.4650
2024-03-24T10:04:32.922Z,8.6956
2024-03-24T10:05:35.981Z,7.4628
2024-03-24T10:06:38.996Z,7.1173
2024-03-24T10:07:42.053Z,6.9039
2024-03-24T10:08:45.104Z,6.9005
2024-03-24T10:09:48.187Z,6.4476
2024-03-24T10:10:51.163Z,6.5722
2024-03-24T10:11:54.314Z,6.7655
2024-03-24T10:12:57.334Z,6.9511
2024-03-24T10:14:00.364Z,6.4374
2024-03-24T10:15:03.389Z,6.2976
2024-03-24T10:16:06.400Z,6.0279
2024-03-24T10:17:09.433Z,6.0901
2024-03-24T10:18:09.652Z,5.8855
2024-03-24T10:19:12.697Z,5.7546
2024-03-24T10:20:15.746Z,5.7357
2024-03-24T10:21:18.741Z,5.7852
2024-03-24T10:22:22.090Z,5.3274
2024-03-24T10:23:25.100Z,5.3355
2024-03-24T10:24:28.140Z,5.2063
2024-03-24T10:25:31.198Z,5.0007
2024-03-24T10:26:34.269Z,5.0199
2024-03-24T10:27:37.297Z,5.1155
2024-03-24T10:28:40.313Z,5.1568
2024-03-24T10:29:43.429Z,5.0960
2024-03-24T10:30:46.445Z,5.2338
2024-03-24T10:31:52.731Z,5.2287
2024-03-24T10:32:52.843Z,5.5910
2024-03-24T10:33:55.848Z,5.5584
2024-03-24T10:34:58.858Z,6.9103
2024-03-24T10:36:02.032Z,8.4173
2024-03-24T10:37:05.041Z,8.2701
2024-03-24T10:38:08.189Z,9.1038
2024-03-24T10:39:11.242Z,7.8583
2024-03-24T10:40:14.371Z,7.1726
2024-03-24T10:41:17.420Z,8.2188
2024-03-24T10:42:20.459Z,8.8451
2024-03-24T10:43:23.525Z,9.2531
2024-03-24T10:44:26.502Z,8.4116
2024-03-24T10:45:29.542Z,8.0307
2024-03-24T10:46:32.579Z,8.2418
2024-03-24T10:47:35.712Z,9.0960
2024-03-24T10:48:38.730Z,8.2974
2024-03-24T10:49:41.789Z,9.5869
2024-03-24T10:50:44.814Z,10.0871
2024-03-24T10:51:47.855Z,9.5372
2024-03-24T10:52:53.250Z,9.3207
2024-03-24T10:53:53.318Z,10.4370
2024-03-24T10:54:56.348Z,10.6273
2024-03-24T10:55:59.379Z,11.3433
2024-03-24T10:57:02.394Z,10.9912
2024-03-24T10:58:05.413Z,9.9008
2024-03-24T10:59:11.307Z,8.7365
2024-03-24T11:00:08.717Z,8.2869
2024-03-24T11:01:11.999Z,7.6768
2024-03-24T11:02:15.077Z,7.6663
2024-03-24T11:03:18.131Z,7.2508
2024-03-24T11:04:21.149Z,6.5363
2024-03-24T11:05:24.160Z,6.3742
2024-03-24T11:06:27.180Z,5.7693
2024-03-24T11:07:30.246Z,5.0222
2024-03-24T11:08:33.269Z,4.5985
2024-03-24T11:09:36.289Z,4.5138
2024-03-24T11:10:39.346Z,4.0903
2024-03-24T11:11:42.478Z,3.8043
2024-03-24T11:12:45.609Z,3.3573
2024-03-24T11:13:48.778Z,3.3246
2024-03-24T11:14:51.880Z,3.2554
2024-03-24T11:15:54.904Z,3.5668
2024-03-24T11:16:57.408Z,4.1237
2024-03-24T11:17:59.971Z,4.4355
2024-03-24T11:19:02.420Z,4.8533
2024-03-24T11:20:04.886Z,5.2338
2024-03-24T11:21:07.347Z,5.1350
2024-03-24T11:22:09.772Z,5.1151
2024-03-24T11:23:12.292Z,5.5053
2024-03-24T11:24:14.747Z,5.8494
2024-03-24T11:25:17.350Z,5.5848
2024-03-24T11:26:19.898Z,5.9953
2024-03-24T11:27:22.926Z,6.2309
2024-03-24T11:28:23.083Z,6.1643
2024-03-24T11:29:26.177Z,7.0376
2024-03-24T11:30:29.177Z,7.7580
2024-03-24T11:31:32.167Z,7.9915
2024-03-24T11:32:35.178Z,8.3736
2024-03-24T11:33:38.220Z,7.1359
2024-03-24T11:34:41.248Z,6.7832
2024-03-24T11:35:44.340Z,6.4023
2024-03-24T11:36:47.375Z,6.6464
2024-03-24T11:37:50.445Z,7.0643
2024-03-24T11:38:53.418Z,8.7184
2024-03-24T11:39:56.495Z,9.1957
2024-03-24T11:40:59.539Z,8.7071
2024-03-24T11:42:02.592Z,9.7773
2024-03-24T11:43:05.619Z,8.7224
2024-03-24T11:44:08.645Z,8.7680
2024-03-24T11:45:11.727Z,9.0521
2024-03-24T11:46:14.717Z,9.0053
2024-03-24T11:47:17.778Z,9.1825
2024-03-24T11:48:20.829Z,9.7527
2024-03-24T11:49:23.849Z,9.5872
2024-03-24T11:50:27.239Z,9.2722
2024-03-24T11:51:30.262Z,8.2493
2024-03-24T11:52:33.366Z,8.8316
2024-03-24T11:53:36.395Z,9.3606
2024-03-24T11:54:39.420Z,8.8585
2024-03-24T11:55:42.419Z,9.0387
2024-03-24T11:56:45.465Z,9.6142
2024-03-24T11:57:48.529Z,9.3583
2024-03-24T11:58:51.540Z,8.9659
2024-03-24T11:59:54.576Z,9.3722
2024-03-24T12:00:57.628Z,9.9527
2024-03-24T12:02:00.662Z,10.2647
2024-03-24T12:03:03.747Z,9.4655
2024-03-24T12:04:06.736Z,8.1732
2024-03-24T12:05:09.748Z,8.5064
2024-03-24T12:06:12.798Z,8.5754
2024-03-24T12:07:15.898Z,8.9015
2024-03-24T12:08:18.908Z,7.9583
2024-03-24T12:09:21.921Z,8.1640
2024-03-24T12:10:24.987Z,7.9749
2024-03-24T12:11:28.027Z,7.9845
2024-03-24T12:12:31.067Z,9.2009
2024-03-24T12:13:34.116Z,9.2190
2024-03-24T12:14:37.146Z,8.3668
2024-03-24T12:15:40.171Z,8.1538
2024-03-24T12:16:43.247Z,8.2409
2024-03-24T12:17:46.287Z,8.3275
2024-03-24T12:18:49.306Z,8.2628
2024-03-24T12:19:52.372Z,8.3625
2024-03-24T12:20:55.504Z,9.7236
2024-03-24T12:21:58.570Z,9.9951
2024-03-24T12:23:01.606Z,9.9037
2024-03-24T12:24:04.826Z,9.9549
2024-03-24T12:25:07.824Z,8.1685
2024-03-24T12:26:10.834Z,8.3409
2024-03-24T12:27:13.940Z,8.7206
2024-03-24T12:28:16.985Z,10.0439
2024-03-24T12:29:20.020Z,9.4579
2024-03-24T12:30:23.074Z,9.9855
2024-03-24T12:31:26.426Z,9.2382
2024-03-24T12:32:29.461Z,9.7331
2024-03-24T12:33:32.499Z,8.9727
2024-03-24T12:34:35.540Z,8.9639
2024-03-24T12:35:38.588Z,8.1087
2024-03-24T12:36:41.618Z,7.9397
2024-03-24T12:37:44.698Z,7.5168
2024-03-24T12:38:47.719Z,7.3675
2024-03-24T12:39:50.736Z,7.1680
2024-03-24T12:40:55.245Z,7.3263
2024-03-24T12:41:54.968Z,7.2045
2024-03-24T12:42:58.160Z,7.5239
2024-03-24T12:44:01.303Z,8.3271
2024-03-24T12:45:04.353Z,8.3787
2024-03-24T12:46:07.367Z,10.6028
2024-03-24T12:47:10.432Z,11.0106
2024-03-24T12:48:13.498Z,10.0994
2024-03-24T12:49:16.496Z,10.3770
2024-03-24T12:51:22.647Z,9.8284
2024-03-24T12:52:25.646Z,10.2754
2024-03-24T12:53:28.676Z,11.1150
2024-03-24T12:54:31.701Z,11.2796
2024-03-24T12:55:34.757Z,11.4825
2024-03-24T12:56:37.779Z,10.6436
2024-03-24T12:57:40.819Z,10.3875
2024-03-24T12:58:43.863Z,10.8703
2024-03-24T12:59:46.896Z,11.1640
2024-03-24T13:00:49.956Z,10.6431
2024-03-24T13:01:53.075Z,10.1367
2024-03-24T13:02:56.119Z,9.9718
2024-03-24T13:03:59.156Z,10.9790
2024-03-24T13:05:02.171Z,11.4067